Time;durP1;ratioP1;P1;durP2;ratioP2;P2;SDS_P1;SDS_P2;PMS_P1;PMS_P2;Temp;Humidity;BMP_temperature;BMP_pressure;BME280_temperature;BME280_humidity;BME280_pressure;Samples;Min_cycle;Max_cycle;Signal;HPM_P1;HPM_P2
2023/12/09 00:09:34;;;;;;;69.25;19.67;;;8.10;99.90;;;;;;6064015;22;20053;-70
2023/12/09 00:12:00;;;;;;;60.78;19.00;;;8.10;99.90;;;;;;5044751;28;20048;-70
2023/12/09 00:19:31;;;;;;;67.55;19.98;;;8.10;99.90;;;;;;5025971;28;20068;-70
2023/12/09 00:24:32;;;;;;;76.95;20.00;;;8.10;99.90;;;;;;5889290;22;20094;-69
2023/12/09 00:42:24;;;;;;;70.18;19.25;;;8.20;99.90;;;;;;5011015;28;20407;-70
2023/12/09 00:47:25;;;;;;;67.43;21.05;;;8.20;99.90;;;;;;5704945;22;20079;-70
2023/12/09 00:49:50;;;;;;;62.40;18.38;;;8.20;99.90;;;;;;5033866;28;20438;-70
2023/12/09 01:02:49;;;;;;;56.70;16.65;;;8.20;99.90;;;;;;5035602;28;20183;-70
2023/12/09 01:05:15;;;;;;;53.03;18.80;;;8.20;99.90;;;;;;5029902;28;20527;-70
2023/12/09 01:07:40;;;;;;;58.00;18.48;;;8.20;99.90;;;;;;5030913;28;20132;-69
2023/12/09 01:17:52;;;;;;;51.97;17.98;;;8.20;99.90;;;;;;5217520;22;20046;-70
2023/12/09 01:22:53;;;;;;;67.28;20.02;;;8.30;99.90;;;;;;6074178;22;20063;-70
2023/12/09 01:25:18;;;;;;;54.75;18.92;;;8.30;99.90;;;;;;5047347;28;20044;-70
2023/12/09 01:27:44;;;;;;;54.42;20.27;;;8.30;99.90;;;;;;5041138;28;20059;-71
2023/12/09 01:30:10;;;;;;;55.38;20.58;;;8.30;99.90;;;;;;5050962;28;20126;-70
2023/12/09 01:32:35;;;;;;;56.10;18.92;;;8.40;99.90;;;;;;5051128;28;20075;-70
2023/12/09 01:45:14;;;;;;;47.65;18.23;;;8.40;99.90;;;;;;4994855;28;20031;-70
2023/12/09 01:58:03;;;;;;;47.40;16.92;;;8.40;99.90;;;;;;5008613;28;20531;-70
2023/12/09 02:00:29;;;;;;;45.92;18.10;;;8.40;99.90;;;;;;4987966;28;20095;-70
2023/12/09 02:08:08;;;;;;;51.92;18.55;;;8.40;99.90;;;;;;5010489;22;20050;-70
2023/12/09 02:13:19;;;;;;;40.05;14.77;;;8.40;99.90;;;;;;4992116;28;20061;-70
2023/12/09 02:16:17;;;;;;;52.40;17.95;;;8.40;99.90;;;;;;4989781;28;20041;-70
2023/12/09 02:18:45;;;;;;;47.13;16.75;;;8.40;99.90;;;;;;4989971;28;20046;-70
2023/12/09 02:31:35;;;;;;;44.40;15.68;;;8.40;99.90;;;;;;6042457;22;20352;-70
2023/12/09 02:34:02;;;;;;;41.95;14.90;;;8.30;99.90;;;;;;5020578;28;20499;-70
2023/12/09 02:36:29;;;;;;;46.45;16.17;;;8.40;99.90;;;;;;5030034;28;20113;-70
2023/12/09 02:41:31;;;;;;;41.70;16.90;;;8.40;99.90;;;;;;5042250;22;20046;-70
2023/12/09 02:43:57;;;;;;;37.60;15.02;;;8.40;99.90;;;;;;4995628;28;20060;-70
2023/12/09 02:54:09;;;;;;;44.88;15.35;;;8.40;99.90;;;;;;5280606;22;20051;-70
2023/12/09 02:56:35;;;;;;;34.00;14.35;;;8.40;99.90;;;;;;5064224;28;20036;-70
2023/12/09 02:59:00;;;;;;;50.00;15.63;;;8.40;99.90;;;;;;5470360;22;20026;-70
2023/12/09 03:01:26;;;;;;;43.90;15.57;;;8.40;99.90;;;;;;5032214;28;20080;-70
2023/12/09 03:11:37;;;;;;;43.70;15.98;;;8.40;99.90;;;;;;5657346;22;20472;-70
2023/12/09 03:14:03;;;;;;;38.00;16.38;;;8.40;99.90;;;;;;5017060;28;20078;-70
2023/12/09 03:16:29;;;;;;;48.50;16.63;;;8.40;99.90;;;;;;5014095;28;20040;-70
2023/12/09 03:29:16;;;;;;;38.50;14.20;;;8.30;99.90;;;;;;5232872;22;20103;-70
2023/12/09 03:31:42;;;;;;;34.05;13.35;;;8.30;99.90;;;;;;5024077;28;20492;-70
2023/12/09 03:34:16;;;;;;;38.08;14.32;;;8.30;99.90;;;;;;5563419;22;20877;-67
2023/12/09 03:36:42;;;;;;;36.60;14.85;;;8.40;99.90;;;;;;5010304;28;20046;-70
2023/12/09 03:39:08;;;;;;;40.72;14.85;;;8.30;99.90;;;;;;5028993;28;20041;-70
2023/12/09 03:41:36;;;;;;;37.63;15.02;;;8.30;99.90;;;;;;5010643;28;20321;-70
2023/12/09 03:46:37;;;;;;;40.75;14.20;;;8.30;99.90;;;;;;5544415;22;20052;-70
2023/12/09 03:49:02;;;;;;;44.30;14.82;;;8.30;99.90;;;;;;5038681;28;20033;-70
2023/12/09 03:51:28;;;;;;;38.03;14.02;;;8.30;99.90;;;;;;5028284;28;20098;-70
2023/12/09 03:53:54;;;;;;;36.55;14.00;;;8.30;99.90;;;;;;5057856;28;20186;-70
2023/12/09 03:56:21;;;;;;;34.47;13.55;;;8.30;99.90;;;;;;5034625;28;20718;-70
2023/12/09 04:01:24;;;;;;;36.05;12.50;;;8.40;99.90;;;;;;5489923;22;20057;-70
2023/12/09 04:03:50;;;;;;;37.20;13.75;;;8.30;99.90;;;;;;4990490;28;20316;-70
2023/12/09 04:06:16;;;;;;;40.58;14.98;;;8.30;99.90;;;;;;5000449;28;20069;-70
2023/12/09 04:08:42;;;;;;;32.30;12.48;;;8.30;99.90;;;;;;5375218;22;20041;-70
2023/12/09 04:11:07;;;;;;;43.00;14.60;;;8.30;99.90;;;;;;5032920;28;20090;-70
2023/12/09 04:13:33;;;;;;;45.25;13.35;;;8.40;99.90;;;;;;5022282;28;20072;-70
2023/12/09 04:21:21;;;;;;;40.67;14.32;;;8.40;99.90;;;;;;5853667;22;20465;-70
2023/12/09 04:23:47;;;;;;;37.85;14.65;;;8.30;99.90;;;;;;5008859;28;20045;-70
2023/12/09 04:26:13;;;;;;;36.28;12.98;;;8.30;99.90;;;;;;5049321;28;20033;-70
2023/12/09 04:28:39;;;;;;;39.22;15.25;;;8.30;99.90;;;;;;5024466;28;20083;-70
2023/12/09 04:33:40;;;;;;;39.60;14.55;;;8.30;99.90;;;;;;5807450;22;20045;-70
2023/12/09 04:41:16;;;;;;;36.80;13.68;;;8.20;99.90;;;;;;6066468;22;20270;-70
2023/12/09 04:43:42;;;;;;;39.30;14.00;;;8.20;99.90;;;;;;5014875;28;20128;-70
2023/12/09 04:46:08;;;;;;;42.05;12.63;;;8.20;99.90;;;;;;5016131;28;20123;-71
2023/12/09 04:56:19;;;;;;;40.67;13.48;;;8.20;99.90;;;;;;5410373;22;20045;-71
2023/12/09 05:01:21;;;;;;;29.85;12.68;;;8.20;99.90;;;;;;5753868;22;20056;-69
2023/12/09 05:08:57;;;;;;;44.65;12.40;;;8.10;99.90;;;;;;5807619;22;20273;-70
2023/12/09 05:11:23;;;;;;;37.63;11.85;;;8.10;99.90;;;;;;5043527;28;20062;-70
2023/12/09 05:13:48;;;;;;;37.42;12.48;;;8.10;99.90;;;;;;5039770;28;20137;-70
2023/12/09 05:18:42;;;;;;;34.00;12.63;;;8.10;99.90;;;;;;5005288;28;20082;-70
2023/12/09 05:21:08;;;;;;;42.45;13.57;;;8.10;99.90;;;;;;5017260;28;20411;-70
2023/12/09 05:23:34;;;;;;;44.13;14.40;;;8.10;99.90;;;;;;5012983;28;20048;-70
2023/12/09 05:26:00;;;;;;;37.63;13.23;;;8.20;99.90;;;;;;5031263;28;20049;-70
2023/12/09 05:28:25;;;;;;;39.00;13.65;;;8.10;99.90;;;;;;4999782;28;20041;-70
2023/12/09 05:30:51;;;;;;;38.38;13.75;;;8.20;99.90;;;;;;5430456;22;20052;-70
2023/12/09 05:33:17;;;;;;;36.67;12.82;;;8.20;99.90;;;;;;5049824;28;20175;-70
2023/12/09 05:35:42;;;;;;;36.78;13.48;;;8.10;99.90;;;;;;5050659;28;20067;-70
2023/12/09 05:38:08;;;;;;;31.85;12.75;;;8.10;99.90;;;;;;5022333;28;20406;-70
2023/12/09 05:40:33;;;;;;;38.50;13.50;;;8.10;99.90;;;;;;5025434;28;20040;-70
2023/12/09 05:42:59;;;;;;;37.85;12.98;;;8.10;99.90;;;;;;4980749;28;20048;-70
2023/12/09 05:45:25;;;;;;;35.55;11.27;;;8.10;99.90;;;;;;5001741;28;20476;-70
2023/12/09 05:47:50;;;;;;;37.10;13.50;;;8.10;99.90;;;;;;5004723;28;20042;-70
2023/12/09 05:50:16;;;;;;;33.90;12.10;;;8.10;99.90;;;;;;5098377;22;20047;-70
2023/12/09 05:52:42;;;;;;;29.63;11.88;;;8.10;99.90;;;;;;5027578;28;20037;-70
2023/12/09 05:55:07;;;;;;;34.28;11.75;;;8.10;99.90;;;;;;5029164;28;20071;-70
2023/12/09 05:57:33;;;;;;;36.42;11.90;;;8.10;99.90;;;;;;5029424;28;20387;-70
2023/12/09 05:59:58;;;;;;;34.78;11.70;;;8.10;99.90;;;;;;5028484;28;20495;-70
2023/12/09 06:12:48;;;;;;;32.78;10.05;;;8.10;99.90;;;;;;5226596;22;20060;-70
2023/12/09 06:15:14;;;;;;;30.63;10.73;;;8.10;99.90;;;;;;5029706;28;20642;-69
2023/12/09 06:17:39;;;;;;;36.38;11.15;;;8.10;99.90;;;;;;5025753;28;20041;-70
2023/12/09 06:23:36;;;;;;;32.22;10.52;;;8.00;99.90;;;;;;5043815;28;20045;-70
2023/12/09 06:26:03;;;;;;;30.48;10.25;;;8.00;99.90;;;;;;5032187;28;20076;-71
2023/12/09 06:28:28;;;;;;;30.73;10.55;;;8.00;99.90;;;;;;5050010;28;20083;-71
2023/12/09 06:31:33;;;;;;;35.28;10.93;;;7.90;99.90;;;;;;5020255;28;20025;-70
2023/12/09 06:33:59;;;;;;;28.60;9.55;;;7.90;99.90;;;;;;5022125;28;20146;-70
2023/12/09 06:36:24;;;;;;;32.20;9.50;;;7.90;99.90;;;;;;5029052;28;20045;-70
2023/12/09 06:38:50;;;;;;;29.60;9.85;;;8.00;99.90;;;;;;5031329;28;20040;-70
2023/12/09 06:41:15;;;;;;;33.65;10.65;;;7.90;99.90;;;;;;5059164;28;20052;-70
2023/12/09 06:47:23;;;;;;;29.35;9.52;;;7.90;99.90;;;;;;5164659;22;20427;-70
2023/12/09 06:49:49;;;;;;;22.38;9.00;;;7.80;99.90;;;;;;5010036;28;20072;-70
2023/12/09 06:52:15;;;;;;;27.08;9.40;;;7.70;99.90;;;;;;5027508;28;20096;-70
2023/12/09 06:54:40;;;;;;;23.40;8.80;;;7.70;99.90;;;;;;5032840;28;20033;-70
2023/12/09 06:57:06;;;;;;;26.75;8.80;;;7.70;99.90;;;;;;5033966;28;20045;-70
2023/12/09 06:59:31;;;;;;;26.17;9.35;;;7.60;99.90;;;;;;5092928;22;20040;-70
2023/12/09 07:01:57;;;;;;;26.50;8.70;;;7.60;99.90;;;;;;5089148;28;20039;-70
2023/12/09 07:04:23;;;;;;;30.13;8.20;;;7.60;99.90;;;;;;5071189;28;20122;-70
2023/12/09 07:06:49;;;;;;;25.45;7.65;;;7.50;99.90;;;;;;5063164;28;20063;-70
2023/12/09 07:09:14;;;;;;;25.52;8.07;;;7.40;99.90;;;;;;5079186;28;20075;-70
2023/12/09 07:11:40;;;;;;;23.73;7.90;;;7.30;99.90;;;;;;5055098;28;20058;-70
2023/12/09 07:14:05;;;;;;;20.45;7.45;;;7.30;99.90;;;;;;5055100;28;20040;-70
2023/12/09 07:16:31;;;;;;;26.52;7.70;;;7.20;99.90;;;;;;5030410;28;20048;-70
2023/12/09 07:19:00;;;;;;;20.38;7.30;;;7.10;99.90;;;;;;5072711;28;20041;-70
2023/12/09 07:21:27;;;;;;;27.77;7.70;;;7.00;99.90;;;;;;5048202;28;20041;-70
2023/12/09 07:23:53;;;;;;;23.27;7.65;;;7.00;99.90;;;;;;5028344;28;20047;-70
2023/12/09 07:26:18;;;;;;;26.95;8.30;;;6.90;99.90;;;;;;5027544;28;20032;-70
2023/12/09 07:28:47;;;;;;;24.77;8.07;;;6.90;99.90;;;;;;5054421;28;20037;-70
2023/12/09 07:31:14;;;;;;;19.60;7.15;;;6.80;99.90;;;;;;5055632;28;20105;-70
2023/12/09 07:33:39;;;;;;;22.88;7.10;;;6.70;99.90;;;;;;5057386;28;20555;-70
2023/12/09 07:36:05;;;;;;;24.65;7.75;;;6.70;99.90;;;;;;5054144;28;20040;-70
2023/12/09 07:38:31;;;;;;;23.65;7.70;;;6.70;99.90;;;;;;5048147;28;20044;-70
2023/12/09 07:40:57;;;;;;;25.92;7.40;;;6.60;99.90;;;;;;5046749;28;20075;-70
2023/12/09 07:43:22;;;;;;;21.63;6.55;;;6.60;99.90;;;;;;5036122;28;20398;-70
2023/12/09 07:45:48;;;;;;;24.13;6.72;;;6.50;99.90;;;;;;5049581;28;20116;-70
2023/12/09 07:48:14;;;;;;;24.17;7.00;;;6.50;99.90;;;;;;5040898;28;20052;-70
2023/12/09 07:50:40;;;;;;;20.17;5.70;;;6.60;99.90;;;;;;5072220;28;20579;-70
2023/12/09 07:53:06;;;;;;;24.83;7.20;;;6.60;99.90;;;;;;5217204;23;20045;-70
2023/12/09 07:55:31;;;;;;;20.35;5.65;;;6.60;99.90;;;;;;5006096;28;20034;-70
2023/12/09 07:57:57;;;;;;;24.20;5.95;;;6.70;99.90;;;;;;5005286;28;20127;-70
2023/12/09 08:00:26;;;;;;;14.52;5.38;;;6.70;99.90;;;;;;5013607;28;20053;-71
2023/12/09 08:02:55;;;;;;;21.50;5.65;;;6.60;99.90;;;;;;5014819;28;20411;-69
2023/12/09 08:10:32;;;;;;;18.02;5.68;;;6.70;99.90;;;;;;5246469;22;20060;-70
2023/12/09 08:12:57;;;;;;;17.88;5.10;;;6.80;99.90;;;;;;5052142;28;20043;-71
2023/12/09 08:15:23;;;;;;;17.23;5.40;;;6.80;99.90;;;;;;5024840;28;20037;-70
2023/12/09 08:17:49;;;;;;;25.35;5.20;;;6.80;99.90;;;;;;5019398;28;20480;-72
2023/12/09 08:23:07;;;;;;;17.40;4.90;;;6.90;99.90;;;;;;5253202;22;20055;-70
2023/12/09 08:25:32;;;;;;;30.45;6.30;;;6.90;99.90;;;;;;5070470;28;20501;-71
2023/12/09 08:27:58;;;;;;;20.42;4.70;;;6.90;99.90;;;;;;5089032;28;20075;-71
2023/12/09 08:30:23;;;;;;;18.85;4.55;;;6.90;99.90;;;;;;5077532;28;20540;-70
2023/12/09 08:32:49;;;;;;;22.52;4.75;;;6.90;99.90;;;;;;5039102;28;20119;-70
2023/12/09 08:35:33;;;;;;;18.35;4.80;;;7.00;99.90;;;;;;5071204;28;20076;-71
2023/12/09 08:37:58;;;;;;;22.08;4.28;;;7.00;99.90;;;;;;5063299;28;20051;-71
2023/12/09 08:40:24;;;;;;;17.77;4.60;;;7.00;99.90;;;;;;5046497;28;20037;-71
2023/12/09 08:42:49;;;;;;;18.38;4.70;;;7.00;99.90;;;;;;5050828;28;20045;-70
2023/12/09 08:45:16;;;;;;;17.70;4.07;;;7.00;99.90;;;;;;5513801;23;20084;-69
2023/12/09 08:47:42;;;;;;;11.18;4.35;;;7.10;99.90;;;;;;5017065;28;20043;-69
2023/12/09 08:50:09;;;;;;;18.60;4.28;;;7.10;99.90;;;;;;5005602;28;20041;-70
2023/12/09 08:52:35;;;;;;;15.25;3.95;;;7.20;99.90;;;;;;5004409;28;20219;-71
2023/12/09 08:55:01;;;;;;;14.02;4.07;;;7.20;99.90;;;;;;5014809;28;20030;-71
2023/12/09 08:57:27;;;;;;;23.85;4.78;;;7.30;99.90;;;;;;5023252;28;20033;-71
2023/12/09 09:07:43;;;;;;;18.83;4.45;;;7.50;99.90;;;;;;5971579;22;20049;-71
2023/12/09 09:10:12;;;;;;;15.80;4.03;;;7.60;99.90;;;;;;4987265;28;20042;-71
2023/12/09 09:12:38;;;;;;;15.88;3.90;;;7.60;99.90;;;;;;5001304;28;20121;-71
2023/12/09 09:15:03;;;;;;;13.48;3.67;;;7.60;99.90;;;;;;5008691;28;20124;-72
2023/12/09 09:17:30;;;;;;;15.60;4.10;;;7.60;99.90;;;;;;5007696;28;20040;-71
2023/12/09 09:19:55;;;;;;;14.95;4.00;;;7.70;99.90;;;;;;5013297;28;20064;-72
2023/12/09 09:24:58;;;;;;;17.17;4.72;;;7.80;99.90;;;;;;5525852;22;20419;-72
2023/12/09 09:27:23;;;;;;;14.70;4.25;;;7.80;99.90;;;;;;5027633;28;20044;-72
2023/12/09 09:29:50;;;;;;;15.52;3.83;;;7.90;99.90;;;;;;5019511;28;20160;-72
2023/12/09 09:32:18;;;;;;;10.55;3.90;;;7.90;99.90;;;;;;5015149;28;20112;-72
2023/12/09 09:34:43;;;;;;;16.48;5.00;;;8.00;99.90;;;;;;5057477;28;20063;-73
2023/12/09 09:37:09;;;;;;;16.48;4.15;;;8.10;99.90;;;;;;5010740;28;20049;-73
2023/12/09 09:39:35;;;;;;;12.32;4.30;;;8.10;99.90;;;;;;5040247;28;20510;-73
2023/12/09 09:42:17;;;;;;;12.52;4.00;;;8.20;99.90;;;;;;5062967;28;20048;-73
2023/12/09 09:44:45;;;;;;;;;;;8.20;99.90;;;;;;5027880;28;20401;-73
2023/12/09 09:47:16;;;;;;;12.45;4.10;;;8.30;99.90;;;;;;5046907;28;19923;-73
2023/12/09 09:49:44;;;;;;;;;;;8.30;99.90;;;;;;5055477;28;20406;-73
2023/12/09 09:52:14;;;;;;;11.82;3.85;;;8.20;99.90;;;;;;5049211;28;19929;-73
2023/12/09 09:54:42;;;;;;;14.10;4.20;;;8.20;99.90;;;;;;5013100;28;20140;-73
2023/12/09 09:57:09;;;;;;;10.18;3.95;;;8.30;99.90;;;;;;5024544;28;20037;-71
2023/12/09 09:59:35;;;;;;;17.95;4.32;;;8.30;99.90;;;;;;5320867;22;20007;-72
2023/12/09 10:02:06;;;;;;;17.52;4.30;;;8.50;99.90;;;;;;4978541;28;20056;-72
2023/12/09 10:04:31;;;;;;;11.32;3.88;;;8.40;99.90;;;;;;5007851;28;20037;-73
2023/12/09 10:06:58;;;;;;;14.55;4.50;;;8.50;99.90;;;;;;4994480;28;20041;-72
2023/12/09 10:09:24;;;;;;;11.45;3.80;;;8.50;99.90;;;;;;4991813;28;20038;-72
2023/12/09 10:11:49;;;;;;;15.68;4.40;;;8.50;99.90;;;;;;4977316;28;20042;-72
2023/12/09 10:14:16;;;;;;;12.75;3.70;;;8.60;99.90;;;;;;5009585;28;20060;-73
2023/12/09 10:16:42;;;;;;;14.10;3.92;;;8.60;99.90;;;;;;5012593;28;20064;-73
2023/12/09 10:19:11;;;;;;;12.15;3.97;;;8.70;99.90;;;;;;5012594;28;20164;-72
2023/12/09 10:27:41;;;;;;;13.75;3.90;;;8.70;99.90;;;;;;6294367;22;20004;-72
2023/12/09 10:30:08;;;;;;;8.70;3.47;;;8.70;99.90;;;;;;5021321;28;20107;-73
2023/12/09 10:32:34;;;;;;;15.43;4.55;;;8.70;99.90;;;;;;5023770;28;20475;-73
2023/12/09 10:35:00;;;;;;;8.40;3.50;;;8.70;99.90;;;;;;5004899;28;20056;-73
2023/12/09 10:37:27;;;;;;;14.48;4.20;;;8.70;99.90;;;;;;5022996;28;20048;-73
2023/12/09 10:39:52;;;;;;;13.70;4.13;;;8.70;99.90;;;;;;5007119;28;20037;-73
2023/12/09 10:42:18;;;;;;;17.85;4.88;;;8.70;99.90;;;;;;5035228;22;20053;-73
2023/12/09 10:44:44;;;;;;;10.52;3.78;;;8.70;99.90;;;;;;4982348;28;20451;-71
2023/12/09 10:47:09;;;;;;;14.95;3.90;;;8.70;99.90;;;;;;5005357;28;20044;-72
2023/12/09 10:49:36;;;;;;;12.63;3.97;;;8.70;99.90;;;;;;5016765;28;20048;-71
2023/12/09 10:52:02;;;;;;;12.15;3.55;;;8.60;99.90;;;;;;4999071;28;20125;-72
2023/12/09 10:54:27;;;;;;;14.63;4.43;;;8.70;99.90;;;;;;4985744;28;20117;-70
2023/12/09 10:56:53;;;;;;;11.90;4.13;;;8.70;99.90;;;;;;4999465;28;20125;-71
2023/12/09 10:59:19;;;;;;;14.75;4.35;;;8.70;99.90;;;;;;5003701;28;20443;-71
2023/12/09 11:01:46;;;;;;;15.00;4.60;;;8.70;99.90;;;;;;5011067;28;20087;-70
2023/12/09 11:04:15;;;;;;;8.80;3.90;;;8.70;99.90;;;;;;5013543;28;20088;-72
2023/12/09 11:06:42;;;;;;;14.15;3.78;;;8.70;99.90;;;;;;4994880;28;20041;-72
2023/12/09 11:09:08;;;;;;;17.88;4.63;;;8.80;99.90;;;;;;4984433;28;20038;-73
2023/12/09 11:11:35;;;;;;;16.10;3.90;;;8.80;99.90;;;;;;4998015;28;20034;-73
2023/12/09 11:14:01;;;;;;;13.75;3.80;;;8.80;99.90;;;;;;5001565;28;20554;-71
2023/12/09 11:16:28;;;;;;;16.63;4.07;;;8.80;99.90;;;;;;4990636;28;20133;-69
2023/12/09 11:18:55;;;;;;;12.63;4.53;;;8.80;99.90;;;;;;4992541;28;20030;-69
2023/12/09 11:21:23;;;;;;;10.57;4.00;;;8.90;99.90;;;;;;4984971;28;20066;-72
2023/12/09 11:23:50;;;;;;;12.05;3.42;;;8.80;99.90;;;;;;4998346;28;20044;-69
2023/12/09 11:26:36;;;;;;;16.27;4.30;;;8.90;99.90;;;;;;4997954;28;20053;-69
2023/12/09 11:29:07;;;;;;;16.77;3.90;;;8.90;99.90;;;;;;4985083;28;20098;-71
2023/12/09 11:31:36;;;;;;;19.23;3.90;;;8.90;99.90;;;;;;5008235;28;20456;-71
2023/12/09 11:34:04;;;;;;;8.07;3.15;;;8.90;99.90;;;;;;4996580;28;20041;-71
2023/12/09 11:36:30;;;;;;;11.02;3.47;;;8.90;99.90;;;;;;5013906;28;20033;-70
2023/12/09 11:38:57;;;;;;;10.50;3.28;;;8.90;99.90;;;;;;5003437;28;20041;-71
2023/12/09 11:41:24;;;;;;;8.98;3.05;;;8.90;99.90;;;;;;5010251;28;20530;-71
2023/12/09 11:43:50;;;;;;;11.20;3.03;;;8.90;99.90;;;;;;4988850;28;20528;-69
2023/12/09 11:46:16;;;;;;;9.52;3.10;;;8.90;99.90;;;;;;5011015;28;20429;-70
2023/12/09 11:48:43;;;;;;;10.05;3.17;;;8.90;99.90;;;;;;5012466;28;20042;-69
2023/12/09 11:51:09;;;;;;;10.75;3.25;;;8.80;99.90;;;;;;4999186;28;20039;-69
2023/12/09 11:53:34;;;;;;;15.05;3.60;;;8.90;99.90;;;;;;5017371;28;20396;-69
2023/12/09 11:56:00;;;;;;;10.32;3.15;;;8.90;99.90;;;;;;5005555;28;20088;-69
2023/12/09 11:58:26;;;;;;;9.98;2.88;;;8.90;99.90;;;;;;4982258;28;20050;-71
2023/12/09 12:00:51;;;;;;;13.02;3.03;;;8.90;99.90;;;;;;4981744;28;20039;-71
2023/12/09 12:03:17;;;;;;;9.05;2.92;;;8.90;99.90;;;;;;4998269;28;20540;-69
2023/12/09 12:05:43;;;;;;;10.45;3.00;;;8.90;99.90;;;;;;4977861;28;20084;-70
2023/12/09 12:08:15;;;;;;;11.43;3.17;;;9.00;99.90;;;;;;5003446;28;20044;-71
2023/12/09 12:10:41;;;;;;;12.55;3.25;;;8.90;99.90;;;;;;4990292;28;20096;-71
2023/12/09 12:13:06;;;;;;;10.77;3.00;;;8.90;99.90;;;;;;4991341;28;20089;-72
2023/12/09 12:15:32;;;;;;;14.68;3.38;;;8.90;99.90;;;;;;5023780;28;20042;-73
2023/12/09 12:18:01;;;;;;;11.48;2.72;;;9.00;99.90;;;;;;5010373;28;20117;-72
2023/12/09 12:20:26;;;;;;;11.27;3.00;;;8.90;99.90;;;;;;4999031;28;20041;-72
2023/12/09 12:22:52;;;;;;;14.30;4.38;;;8.90;99.90;;;;;;4995174;28;20092;-73
2023/12/09 12:25:17;;;;;;;9.48;2.58;;;9.00;99.90;;;;;;5004804;28;20038;-73
2023/12/09 12:27:47;;;;;;;11.00;3.20;;;9.00;99.90;;;;;;4996546;28;20044;-69
2023/12/09 12:30:15;;;;;;;10.50;2.70;;;8.90;99.90;;;;;;4996834;28;20041;-69
2023/12/09 12:32:42;;;;;;;9.15;3.05;;;9.00;99.90;;;;;;4991400;28;20131;-70
2023/12/09 12:35:08;;;;;;;9.77;3.00;;;9.00;99.90;;;;;;5009979;28;20038;-69
2023/12/09 12:37:34;;;;;;;9.73;2.92;;;9.10;99.90;;;;;;4995082;28;20088;-70
2023/12/09 12:39:59;;;;;;;12.98;3.17;;;9.10;99.90;;;;;;4992469;28;20546;-69
2023/12/09 12:42:25;;;;;;;10.02;2.70;;;9.10;99.90;;;;;;4988238;28;20093;-69
2023/12/09 12:44:51;;;;;;;9.40;3.00;;;9.00;99.90;;;;;;5009905;28;20049;-70
2023/12/09 12:47:16;;;;;;;9.25;2.67;;;9.10;99.90;;;;;;5020225;28;20041;-70
2023/12/09 12:49:42;;;;;;;12.77;3.35;;;9.10;99.90;;;;;;4996029;28;20424;-70
2023/12/09 12:52:08;;;;;;;10.63;2.72;;;9.10;99.90;;;;;;4995592;28;20459;-69
2023/12/09 12:54:33;;;;;;;10.48;3.30;;;9.10;99.90;;;;;;5000605;28;20061;-70
2023/12/09 12:56:59;;;;;;;10.25;2.75;;;9.10;99.90;;;;;;4984999;28;20048;-69
2023/12/09 12:59:24;;;;;;;9.07;2.70;;;9.10;99.90;;;;;;4999358;28;20124;-69
2023/12/09 13:01:50;;;;;;;13.27;4.90;;;9.10;99.90;;;;;;4998152;28;20033;-69
2023/12/09 13:04:15;;;;;;;20.80;7.50;;;9.10;99.90;;;;;;4994301;28;20499;-69
2023/12/09 13:06:41;;;;;;;16.88;6.38;;;9.10;99.90;;;;;;5029064;28;20041;-69
2023/12/09 13:09:08;;;;;;;15.85;7.60;;;9.10;99.90;;;;;;4981861;28;20049;-69
2023/12/09 13:11:34;;;;;;;11.40;3.67;;;9.10;99.90;;;;;;5007968;28;20041;-71
2023/12/09 13:13:59;;;;;;;13.75;4.07;;;9.10;99.90;;;;;;5000543;28;20120;-70
2023/12/09 13:16:25;;;;;;;8.43;2.63;;;9.10;99.90;;;;;;4988285;28;20045;-72
2023/12/09 13:18:51;;;;;;;13.40;2.95;;;9.10;99.90;;;;;;4998064;28;20069;-71
2023/12/09 13:21:16;;;;;;;9.95;3.00;;;9.10;99.90;;;;;;4983813;28;20113;-71
2023/12/09 13:23:42;;;;;;;10.00;3.08;;;9.20;99.90;;;;;;4984816;28;20044;-71
2023/12/09 13:26:08;;;;;;;7.85;3.20;;;9.20;99.90;;;;;;5009863;28;20034;-69
2023/12/09 13:28:33;;;;;;;10.00;3.63;;;9.10;99.90;;;;;;5010928;28;20042;-68
2023/12/09 13:30:59;;;;;;;14.85;3.38;;;9.10;99.90;;;;;;4992798;28;20041;-69
2023/12/09 13:33:24;;;;;;;11.48;2.83;;;9.10;99.90;;;;;;4987403;28;20050;-70
2023/12/09 13:35:50;;;;;;;9.60;2.58;;;9.00;99.90;;;;;;4993645;28;20048;-70
2023/12/09 13:38:16;;;;;;;9.82;3.00;;;9.00;99.90;;;;;;5002599;28;20049;-69
2023/12/09 13:40:45;;;;;;;12.27;2.97;;;8.90;99.90;;;;;;4982682;28;20044;-70
2023/12/09 13:43:10;;;;;;;12.43;2.67;;;8.90;99.90;;;;;;4999776;28;20046;-70
2023/12/09 13:45:36;;;;;;;13.13;3.33;;;8.80;99.90;;;;;;5013304;28;20037;-70
2023/12/09 13:48:03;;;;;;;17.60;5.03;;;8.80;99.90;;;;;;4979970;28;20046;-70
2023/12/09 13:50:29;;;;;;;10.82;4.10;;;8.70;99.90;;;;;;4984915;28;21017;-72
2023/12/09 13:52:54;;;;;;;12.10;3.40;;;8.70;99.90;;;;;;5000892;28;20038;-70
2023/12/09 13:55:22;;;;;;;15.35;3.40;;;8.60;99.90;;;;;;4993780;28;20038;-70
2023/12/09 13:57:48;;;;;;;13.75;3.50;;;8.60;99.90;;;;;;5011203;28;20579;-70
2023/12/09 14:00:15;;;;;;;8.73;2.50;;;8.60;99.90;;;;;;4992004;28;20121;-72
2023/12/09 14:02:43;;;;;;;12.52;3.35;;;8.60;99.90;;;;;;5000471;28;20058;-72
2023/12/09 14:05:09;;;;;;;10.85;3.10;;;8.50;99.90;;;;;;4976207;28;20053;-69
2023/12/09 14:07:35;;;;;;;12.50;3.55;;;8.50;99.90;;;;;;5017608;28;20037;-72
2023/12/09 14:10:00;;;;;;;14.15;4.28;;;8.50;99.90;;;;;;5011213;28;20041;-70
2023/12/09 14:12:26;;;;;;;10.90;3.15;;;8.40;99.90;;;;;;5008121;28;20515;-70
2023/12/09 14:14:52;;;;;;;14.23;3.60;;;8.40;99.90;;;;;;4993409;28;20042;-70
2023/12/09 14:17:17;;;;;;;14.60;3.38;;;8.40;99.90;;;;;;4993972;28;20034;-69
2023/12/09 14:19:43;;;;;;;10.02;3.40;;;8.40;99.90;;;;;;5010325;28;20083;-69
2023/12/09 14:22:09;;;;;;;15.02;3.25;;;8.40;99.90;;;;;;4995004;28;20057;-70
2023/12/09 14:24:35;;;;;;;8.32;3.50;;;8.30;99.90;;;;;;5000312;28;20076;-68
2023/12/09 14:27:01;;;;;;;10.50;3.20;;;8.30;99.90;;;;;;4982174;28;20104;-70
2023/12/09 14:29:27;;;;;;;11.80;3.83;;;8.30;99.90;;;;;;4997161;28;20586;-70
2023/12/09 14:31:53;;;;;;;13.35;3.40;;;8.30;99.90;;;;;;5007550;28;20034;-72
2023/12/09 14:34:18;;;;;;;21.40;3.78;;;8.30;99.90;;;;;;4989852;28;20100;-70
2023/12/09 14:36:44;;;;;;;11.93;3.50;;;8.30;99.90;;;;;;5009843;28;20030;-70
2023/12/09 14:39:10;;;;;;;7.88;3.10;;;8.20;99.90;;;;;;4993960;28;20598;-70
2023/12/09 14:41:36;;;;;;;11.68;3.47;;;8.20;99.90;;;;;;5016468;28;20446;-70
2023/12/09 14:44:01;;;;;;;14.75;3.50;;;8.20;99.90;;;;;;4984454;28;20042;-70
2023/12/09 14:46:27;;;;;;;10.73;3.35;;;8.10;99.90;;;;;;4989989;28;20060;-69
2023/12/09 14:48:53;;;;;;;11.48;2.83;;;8.20;99.90;;;;;;4999439;28;20041;-70
2023/12/09 14:51:19;;;;;;;11.13;3.03;;;8.10;99.90;;;;;;4990828;28;20049;-69
2023/12/09 14:53:45;;;;;;;12.57;3.65;;;8.10;99.90;;;;;;5009917;28;20045;-70
2023/12/09 14:56:11;;;;;;;13.88;3.63;;;8.10;99.90;;;;;;4983683;28;20044;-68
2023/12/09 14:58:36;;;;;;;11.15;3.15;;;8.00;99.90;;;;;;5009818;28;20034;-68
2023/12/09 15:01:03;;;;;;;12.57;4.00;;;8.00;99.90;;;;;;5009427;28;20037;-71
2023/12/09 15:03:29;;;;;;;14.50;3.90;;;8.00;99.90;;;;;;4997791;28;20049;-70
2023/12/09 15:05:55;;;;;;;15.45;3.50;;;8.00;99.90;;;;;;4986484;28;20089;-69
2023/12/09 15:08:21;;;;;;;14.63;3.60;;;8.00;99.90;;;;;;5008555;28;20073;-71
2023/12/09 15:10:47;;;;;;;10.70;3.30;;;8.00;99.90;;;;;;4992059;28;20113;-71
2023/12/09 15:13:13;;;;;;;10.45;3.70;;;7.90;99.90;;;;;;5001504;28;20121;-73
2023/12/09 15:15:38;;;;;;;9.07;3.30;;;8.00;99.90;;;;;;5014760;28;20091;-73
2023/12/09 15:18:04;;;;;;;10.00;4.00;;;7.90;99.90;;;;;;5026435;28;20048;-73
2023/12/09 15:20:31;;;;;;;14.18;3.78;;;7.90;99.90;;;;;;4994342;28;20046;-73
2023/12/09 15:22:58;;;;;;;12.02;3.33;;;7.90;99.90;;;;;;5005649;28;20042;-73
2023/12/09 15:25:23;;;;;;;13.18;3.55;;;7.90;99.90;;;;;;5010278;28;20084;-72
2023/12/09 15:27:49;;;;;;;8.68;3.28;;;7.90;99.90;;;;;;4987260;28;20587;-74
2023/12/09 15:30:15;;;;;;;13.27;3.53;;;7.90;99.90;;;;;;4994672;28;20038;-74
2023/12/09 15:32:42;;;;;;;10.75;3.63;;;7.90;99.90;;;;;;4972546;28;20089;-75
2023/12/09 15:35:08;;;;;;;13.88;4.43;;;7.90;99.90;;;;;;4985843;28;20056;-73
2023/12/09 15:37:34;;;;;;;11.05;4.05;;;7.90;99.90;;;;;;4981836;28;20037;-75
2023/12/09 15:40:00;;;;;;;8.98;3.92;;;7.90;99.90;;;;;;4990473;28;20124;-73
2023/12/09 15:42:26;;;;;;;10.18;4.00;;;7.90;99.90;;;;;;5018739;28;20068;-75
2023/12/09 15:44:52;;;;;;;13.45;3.75;;;7.90;99.90;;;;;;4991171;28;20061;-74
2023/12/09 15:47:18;;;;;;;14.18;4.05;;;7.90;99.90;;;;;;4989253;28;20520;-73
2023/12/09 15:49:44;;;;;;;9.90;4.18;;;7.90;99.90;;;;;;4992168;28;20046;-74
2023/12/09 15:52:11;;;;;;;13.18;4.05;;;7.80;99.90;;;;;;5009944;28;20077;-74
2023/12/09 15:54:36;;;;;;;10.75;3.90;;;7.80;99.90;;;;;;4997470;28;20042;-73
2023/12/09 15:57:02;;;;;;;10.23;4.13;;;7.80;99.90;;;;;;4993831;28;20679;-74
2023/12/09 15:59:28;;;;;;;11.38;4.35;;;7.80;99.90;;;;;;4984298;28;20138;-73
2023/12/09 16:01:54;;;;;;;13.38;3.97;;;7.80;99.90;;;;;;5005678;28;20050;-74